Time;durP1;ratioP1;P1;durP2;ratioP2;P2;SDS_P1;SDS_P2;PMS_P1;PMS_P2;Temp;Humidity;BMP_temperature;BMP_pressure;BME280_temperature;BME280_humidity;BME280_pressure;Samples;Min_cycle;Max_cycle;Signal;HPM_P1;HPM_P2
2022/04/10 00:00:11;;;;;;;4.05;1.55;;;3.20;99.90;;;;;;5110308;28;20044;-79
2022/04/10 00:02:36;;;;;;;9.80;1.65;;;3.10;99.90;;;;;;5104640;28;20058;-81
2022/04/10 00:05:02;;;;;;;3.80;1.50;;;3.40;99.90;;;;;;5089055;28;20043;-80
2022/04/10 00:07:28;;;;;;;4.05;1.80;;;3.20;99.90;;;;;;5093929;28;20036;-80
2022/04/10 00:09:54;;;;;;;6.07;2.25;;;3.10;99.90;;;;;;5076999;28;20046;-80
2022/04/10 00:12:19;;;;;;;3.63;1.77;;;3.10;99.90;;;;;;5111114;28;20043;-80
2022/04/10 00:14:45;;;;;;;2.17;1.48;;;3.30;99.90;;;;;;5110711;28;20039;-81
2022/04/10 00:17:11;;;;;;;1.35;1.25;;;3.80;99.90;;;;;;5101735;28;20112;-81
2022/04/10 00:19:39;;;;;;;10.65;2.42;;;3.20;99.90;;;;;;5099992;28;20073;-80
2022/04/10 00:22:05;;;;;;;2.90;1.30;;;3.10;99.90;;;;;;5108914;28;20051;-80
2022/04/10 00:24:31;;;;;;;2.50;1.80;;;3.20;99.90;;;;;;5127914;28;20396;-80
2022/04/10 00:26:57;;;;;;;1.83;1.67;;;3.20;99.90;;;;;;5110845;28;20058;-81
2022/04/10 00:29:22;;;;;;;1.80;1.33;;;3.20;99.90;;;;;;5094173;28;20070;-82
2022/04/10 00:31:48;;;;;;;5.75;2.50;;;3.60;99.90;;;;;;5109431;28;20039;-83
2022/04/10 00:34:14;;;;;;;6.05;1.38;;;5.00;99.90;;;;;;5139713;27;20070;-81
2022/04/10 00:36:40;;;;;;;1.00;0.95;;;3.20;99.90;;;;;;5105925;28;20043;-82
2022/04/10 00:39:06;;;;;;;13.73;1.65;;;3.10;99.90;;;;;;5081107;28;20464;-83
2022/04/10 00:41:31;;;;;;;2.80;1.45;;;3.50;99.90;;;;;;5099320;28;20119;-82
2022/04/10 00:44:04;;;;;;;4.95;1.50;;;3.20;99.90;;;;;;5137532;27;20096;-82
2022/04/10 00:46:30;;;;;;;3.80;1.65;;;3.20;99.90;;;;;;5083754;28;20136;-81
2022/04/10 00:48:56;;;;;;;2.67;1.58;;;4.40;99.90;;;;;;5076572;27;20032;-80
2022/04/10 00:54:19;;;;;;;1.85;1.75;;;3.20;99.90;;;;;;5102365;27;20126;-82
2022/04/10 00:56:45;;;;;;;6.25;1.88;;;3.10;99.90;;;;;;5097013;28;20172;-82
2022/04/10 00:59:12;;;;;;;;;;;3.10;99.90;;;;;;5098398;28;20047;-82
2022/04/10 01:01:39;;;;;;;1.83;1.65;;;3.10;99.90;;;;;;5114577;27;19946;-81
2022/04/10 01:04:06;;;;;;;3.60;1.88;;;3.00;99.90;;;;;;5118350;27;20089;-83
2022/04/10 01:06:35;;;;;;;3.70;1.42;;;3.00;99.90;;;;;;5081018;27;20119;-82
2022/04/10 01:09:05;;;;;;;1.73;1.27;;;3.00;99.90;;;;;;5097360;28;20047;-82
2022/04/10 01:11:33;;;;;;;6.93;1.83;;;3.00;99.90;;;;;;5097592;28;20089;-82
2022/04/10 01:13:59;;;;;;;0.80;0.80;;;4.30;99.90;;;;;;5091106;27;20039;-82
2022/04/10 01:16:25;;;;;;;3.17;1.48;;;3.90;99.90;;;;;;5096728;27;20507;-82
2022/04/10 01:18:51;;;;;;;0.80;0.80;;;3.00;99.90;;;;;;5105680;27;20049;-83
2022/04/10 01:21:26;;;;;;;1.02;1.02;;;3.40;99.90;;;;;;5074173;28;20040;-83
2022/04/10 01:23:56;;;;;;;11.30;1.73;;;3.00;99.90;;;;;;5096775;28;20096;-82
2022/04/10 01:26:24;;;;;;;5.18;1.20;;;2.90;99.90;;;;;;5097464;28;20122;-83
2022/04/10 01:29:07;;;;;;;2.75;1.30;;;3.00;99.90;;;;;;5096167;28;20036;-83
2022/04/10 01:31:39;;;;;;;1.30;1.20;;;2.90;99.90;;;;;;5112887;28;20048;-84
2022/04/10 01:34:13;;;;;;;1.70;1.30;;;2.80;99.90;;;;;;5113682;28;20047;-84
2022/04/10 01:36:40;;;;;;;0.90;0.90;;;2.80;99.90;;;;;;5096971;28;20069;-84
2022/04/10 01:39:08;;;;;;;5.85;1.88;;;2.80;99.90;;;;;;5115549;27;20111;-84
2022/04/10 01:41:34;;;;;;;1.80;1.70;;;2.80;99.90;;;;;;5097287;28;20054;-82
2022/04/10 01:44:00;;;;;;;;;;;2.80;99.90;;;;;;5081038;27;20078;-83
2022/04/10 01:46:27;;;;;;;1.70;1.25;;;4.30;99.90;;;;;;5111179;28;19916;-83
2022/04/10 01:48:53;;;;;;;1.40;1.30;;;2.80;99.90;;;;;;5101294;27;20035;-84
2022/04/10 01:51:19;;;;;;;0.80;0.80;;;2.80;99.90;;;;;;5080494;28;20054;-84
2022/04/10 01:53:45;;;;;;;4.43;1.55;;;2.80;99.90;;;;;;5076075;28;20036;-84
2022/04/10 01:56:11;;;;;;;;;;;3.10;99.90;;;;;;5098036;28;20173;-83
2022/04/10 01:58:39;;;;;;;2.58;1.75;;;4.00;99.90;;;;;;5095882;28;19959;-83
2022/04/10 02:01:07;;;;;;;14.43;2.38;;;2.90;99.90;;;;;;5111389;28;20523;-83
2022/04/10 02:03:33;;;;;;;2.17;1.30;;;3.00;99.90;;;;;;5118104;27;20046;-83
2022/04/10 02:06:02;;;;;;;4.45;1.23;;;3.00;99.90;;;;;;5082390;28;20036;-82
2022/04/10 02:08:29;;;;;;;8.68;1.20;;;3.00;99.90;;;;;;5087305;28;20032;-84
2022/04/10 02:10:55;;;;;;;1.58;0.80;;;3.00;99.90;;;;;;5096776;28;20127;-82
2022/04/10 02:13:21;;;;;;;0.88;0.88;;;3.00;99.90;;;;;;5107027;28;20047;-82
2022/04/10 02:15:47;;;;;;;;;;;2.90;99.90;;;;;;5114103;28;20082;-84
2022/04/10 02:18:13;;;;;;;1.55;1.33;;;4.10;99.90;;;;;;5096517;28;19919;-83
2022/04/10 02:20:39;;;;;;;1.95;1.02;;;3.30;99.90;;;;;;5083555;27;20115;-83
2022/04/10 02:23:05;;;;;;;2.70;1.45;;;3.00;99.90;;;;;;5127462;27;20036;-81
2022/04/10 02:25:31;;;;;;;2.40;1.75;;;2.80;99.90;;;;;;5142880;27;20043;-84
2022/04/10 02:27:57;;;;;;;3.05;1.75;;;3.30;99.90;;;;;;5113779;27;20183;-83
2022/04/10 02:30:23;;;;;;;6.03;2.03;;;3.00;99.90;;;;;;5108473;27;20046;-84
2022/04/10 02:32:50;;;;;;;4.18;2.08;;;2.80;99.90;;;;;;5095483;28;20039;-83
2022/04/10 02:35:15;;;;;;;4.63;1.80;;;2.50;99.90;;;;;;5060068;28;20048;-84
2022/04/10 02:37:45;;;;;;;2.30;1.50;;;2.50;99.90;;;;;;5108409;28;20421;-82
2022/04/10 02:40:16;;;;;;;1.88;1.55;;;3.50;99.90;;;;;;5079446;28;20047;-82
2022/04/10 02:42:42;;;;;;;1.20;1.00;;;2.60;99.90;;;;;;5081227;28;20142;-84
2022/04/10 02:45:09;;;;;;;5.57;1.75;;;2.70;99.90;;;;;;5109272;27;20479;-83
2022/04/10 02:47:34;;;;;;;4.65;1.83;;;2.80;99.90;;;;;;5112181;28;20090;-82
2022/04/10 02:50:00;;;;;;;1.38;0.95;;;3.00;99.90;;;;;;5074480;27;20264;-83
2022/04/10 02:52:26;;;;;;;4.72;2.03;;;3.30;99.90;;;;;;5098387;28;20438;-83
2022/04/10 02:54:52;;;;;;;9.32;2.28;;;4.70;99.90;;;;;;5113136;28;20031;-83
2022/04/10 02:57:18;;;;;;;3.33;2.40;;;3.90;99.90;;;;;;5114308;27;20058;-83
2022/04/10 02:59:44;;;;;;;1.15;1.05;;;3.60;99.90;;;;;;5093301;28;20515;-82
2022/04/10 03:02:10;;;;;;;4.20;1.40;;;4.50;99.90;;;;;;5111784;27;20040;-82
2022/04/10 03:04:36;;;;;;;3.38;1.27;;;3.10;99.90;;;;;;5095190;28;20051;-83
2022/04/10 03:07:02;;;;;;;3.05;1.00;;;4.30;99.90;;;;;;5120011;27;20994;-83
2022/04/10 03:09:29;;;;;;;3.38;1.13;;;3.00;99.90;;;;;;5083310;28;20130;-84
2022/04/10 03:11:54;;;;;;;8.15;1.35;;;3.00;99.90;;;;;;5070460;28;20046;-83
2022/04/10 03:14:20;;;;;;;2.45;2.20;;;3.70;99.90;;;;;;5089137;28;20040;-83
2022/04/10 03:16:46;;;;;;;1.27;1.17;;;2.90;99.90;;;;;;5102439;28;20114;-81
2022/04/10 03:19:12;;;;;;;6.07;2.10;;;2.80;99.90;;;;;;5066027;27;20047;-83
2022/04/10 03:21:37;;;;;;;1.55;1.10;;;2.50;99.90;;;;;;5078584;27;20046;-81
2022/04/10 03:24:03;;;;;;;2.70;1.77;;;3.50;99.90;;;;;;5098515;28;20044;-83
2022/04/10 03:26:29;;;;;;;1.02;0.93;;;2.50;99.90;;;;;;5116112;27;20388;-82
2022/04/10 03:28:55;;;;;;;2.20;1.40;;;2.60;99.90;;;;;;5105939;27;20135;-83
2022/04/10 03:31:24;;;;;;;1.13;1.02;;;2.70;99.90;;;;;;5080177;28;20054;-83
2022/04/10 03:33:50;;;;;;;4.22;1.30;;;2.60;99.90;;;;;;5089254;28;20035;-82
2022/04/10 03:36:16;;;;;;;;;;;3.20;99.90;;;;;;5090446;28;20051;-83
2022/04/10 03:38:43;;;;;;;1.67;1.25;;;3.60;99.90;;;;;;5117667;27;19924;-83
2022/04/10 03:41:09;;;;;;;1.90;1.60;;;2.80;99.90;;;;;;5104751;27;20122;-84
2022/04/10 03:43:35;;;;;;;;;;;2.70;99.90;;;;;;5089432;28;20040;-82
2022/04/10 03:46:01;;;;;;;0.90;0.90;;;2.80;99.90;;;;;;5090803;28;20489;-83
2022/04/10 03:48:28;;;;;;;1.65;1.23;;;2.80;99.90;;;;;;5083734;28;20046;-82
2022/04/10 03:50:54;;;;;;;3.50;1.60;;;3.00;99.90;;;;;;5086048;28;20032;-83
2022/04/10 03:53:19;;;;;;;1.35;1.25;;;2.80;99.90;;;;;;5084938;28;20107;-83
2022/04/10 03:55:45;;;;;;;1.58;1.45;;;2.80;99.90;;;;;;5061540;28;20040;-83
2022/04/10 03:58:11;;;;;;;6.25;1.48;;;3.40;99.90;;;;;;5132092;27;20071;-82
2022/04/10 04:00:37;;;;;;;5.50;1.27;;;3.00;99.90;;;;;;5089168;28;20044;-83
2022/04/10 04:03:03;;;;;;;1.35;1.25;;;2.80;99.90;;;;;;5085828;28;20052;-81
2022/04/10 04:05:29;;;;;;;0.82;0.82;;;2.80;99.90;;;;;;5069909;28;20046;-83
2022/04/10 04:07:55;;;;;;;;;;;3.40;99.90;;;;;;5117405;28;20055;-82
2022/04/10 04:10:21;;;;;;;2.40;1.77;;;2.90;99.90;;;;;;5100927;28;21715;-83
2022/04/10 04:12:47;;;;;;;2.88;1.30;;;2.90;99.90;;;;;;5088886;28;20036;-82
2022/04/10 04:15:13;;;;;;;0.90;0.90;;;3.80;99.90;;;;;;5085810;28;20035;-84
2022/04/10 04:17:39;;;;;;;1.40;1.25;;;3.00;99.90;;;;;;5102126;28;20395;-82
2022/04/10 04:20:05;;;;;;;;;;;3.20;99.90;;;;;;5099547;28;20093;-83
2022/04/10 04:22:31;;;;;;;0.80;0.80;;;3.10;99.90;;;;;;5086077;28;20618;-83
2022/04/10 04:24:57;;;;;;;2.45;1.17;;;3.40;99.90;;;;;;5102805;27;20044;-83
2022/04/10 04:27:22;;;;;;;0.80;0.80;;;3.30;99.90;;;;;;5141208;27;20149;-83
2022/04/10 04:29:48;;;;;;;3.75;1.25;;;3.00;99.90;;;;;;5123695;27;20032;-84
2022/04/10 04:32:14;;;;;;;0.60;0.60;;;3.60;99.90;;;;;;5083269;27;20040;-83
2022/04/10 04:34:39;;;;;;;5.13;1.20;;;4.20;99.90;;;;;;5086474;27;20078;-83
2022/04/10 04:37:05;;;;;;;1.90;0.85;;;2.70;99.90;;;;;;5089443;27;20043;-83
2022/04/10 04:39:31;;;;;;;0.98;0.98;;;2.60;99.90;;;;;;5107647;27;20048;-83
2022/04/10 04:41:56;;;;;;;1.40;1.30;;;2.80;99.90;;;;;;5138239;27;20036;-82
2022/04/10 04:44:23;;;;;;;0.80;0.80;;;2.40;99.90;;;;;;5090801;28;20527;-83
2022/04/10 04:46:49;;;;;;;0.80;0.80;;;2.30;99.90;;;;;;5090024;27;20039;-83
2022/04/10 04:49:14;;;;;;;3.33;1.10;;;2.50;99.90;;;;;;5088061;28;20042;-82
2022/04/10 04:51:40;;;;;;;0.77;0.77;;;2.20;99.90;;;;;;5073011;27;20254;-83
2022/04/10 04:54:09;;;;;;;0.68;0.68;;;2.20;99.90;;;;;;5122785;27;20372;-79
2022/04/10 04:56:35;;;;;;;1.85;1.75;;;2.20;99.90;;;;;;5105489;27;20044;-81
2022/04/10 04:59:01;;;;;;;1.42;0.85;;;2.10;99.90;;;;;;5104701;28;20083;-83
2022/04/10 05:01:27;;;;;;;2.80;1.15;;;3.40;99.90;;;;;;5122866;27;20113;-83
2022/04/10 05:03:52;;;;;;;4.85;2.75;;;2.10;99.90;;;;;;5085353;28;20035;-82
2022/04/10 05:06:18;;;;;;;0.88;0.88;;;2.20;99.90;;;;;;5087387;28;20047;-82
2022/04/10 05:08:47;;;;;;;1.98;1.73;;;2.10;99.90;;;;;;5102323;27;20069;-83
2022/04/10 05:11:14;;;;;;;17.25;1.00;;;2.60;99.90;;;;;;5091505;28;20032;-82
2022/04/10 05:13:41;;;;;;;7.07;1.15;;;2.00;99.90;;;;;;5077003;28;20497;-84
2022/04/10 05:16:07;;;;;;;0.88;0.88;;;2.10;99.90;;;;;;5084939;28;20119;-83
2022/04/10 05:18:33;;;;;;;0.75;0.75;;;2.40;99.90;;;;;;5105114;27;20095;-83
2022/04/10 05:20:59;;;;;;;;;;;3.60;99.90;;;;;;5102267;27;20094;-83
2022/04/10 05:23:25;;;;;;;0.90;0.90;;;3.20;99.90;;;;;;5091849;28;21703;-83
2022/04/10 05:25:52;;;;;;;3.40;1.25;;;2.30;99.90;;;;;;5074702;27;20391;-82
2022/04/10 05:28:18;;;;;;;1.63;1.20;;;2.40;99.90;;;;;;5086639;28;20044;-83
2022/04/10 05:30:44;;;;;;;4.40;1.92;;;2.40;99.90;;;;;;5074325;28;20096;-83
2022/04/10 05:33:10;;;;;;;1.30;1.20;;;2.40;99.90;;;;;;5102695;27;20113;-83
2022/04/10 05:35:37;;;;;;;1.95;1.75;;;4.00;99.90;;;;;;5104267;27;20051;-83
2022/04/10 05:38:03;;;;;;;4.90;2.03;;;2.50;99.90;;;;;;5083097;28;20077;-84
2022/04/10 05:40:29;;;;;;;8.38;1.63;;;2.60;99.90;;;;;;5107454;27;20131;-84
2022/04/10 05:42:55;;;;;;;1.42;1.33;;;2.70;99.90;;;;;;5088212;28;20385;-84
2022/04/10 05:45:21;;;;;;;3.22;1.20;;;3.20;99.90;;;;;;5121160;27;20074;-83
2022/04/10 05:47:46;;;;;;;1.83;1.25;;;3.00;99.90;;;;;;5072287;28;21808;-85
2022/04/10 05:50:13;;;;;;;2.10;1.13;;;4.10;99.90;;;;;;5090065;28;20048;-83
2022/04/10 05:52:40;;;;;;;2.25;1.75;;;2.90;99.90;;;;;;5104690;27;20043;-80
2022/04/10 05:55:07;;;;;;;2.30;1.48;;;3.00;99.90;;;;;;5102209;27;20031;-80
2022/04/10 05:57:33;;;;;;;2.05;1.15;;;2.80;99.90;;;;;;5118185;27;20499;-80
2022/04/10 05:59:59;;;;;;;;;;;4.00;99.90;;;;;;5103652;27;20044;-81
2022/04/10 06:02:25;;;;;;;0.93;0.93;;;2.60;99.90;;;;;;5107033;27;20007;-81
2022/04/10 06:04:51;;;;;;;;;;;2.50;99.90;;;;;;5091151;27;20158;-78
2022/04/10 06:07:16;;;;;;;1.48;1.10;;;2.60;99.90;;;;;;5103301;27;20632;-78
2022/04/10 06:09:43;;;;;;;1.25;1.15;;;2.80;99.90;;;;;;5072429;27;20039;-82
2022/04/10 06:12:08;;;;;;;;;;;3.00;99.90;;;;;;5089919;27;20143;-82
2022/04/10 06:14:34;;;;;;;0.98;0.98;;;3.10;99.90;;;;;;5101236;27;19937;-81
2022/04/10 06:17:00;;;;;;;0.93;0.93;;;3.10;99.90;;;;;;5102750;27;20039;-77
2022/04/10 06:19:27;;;;;;;1.67;1.05;;;3.00;99.90;;;;;;5116869;27;20470;-79
2022/04/10 06:21:53;;;;;;;7.07;2.15;;;2.90;99.90;;;;;;5082709;28;20039;-79
2022/04/10 06:24:21;;;;;;;1.20;1.10;;;2.90;99.90;;;;;;5083763;27;20078;-78
2022/04/10 06:26:49;;;;;;;2.05;1.67;;;2.80;99.90;;;;;;5121159;27;20039;-79
2022/04/10 06:29:15;;;;;;;0.77;0.77;;;2.90;99.90;;;;;;5101412;27;20108;-79
2022/04/10 06:31:41;;;;;;;4.18;1.23;;;2.90;99.90;;;;;;5097327;27;20345;-78
2022/04/10 06:34:07;;;;;;;4.85;1.80;;;2.90;99.90;;;;;;5104532;27;20073;-79
2022/04/10 06:36:33;;;;;;;3.75;1.90;;;2.80;99.90;;;;;;5085319;28;20036;-80
2022/04/10 06:38:58;;;;;;;2.80;1.27;;;2.80;99.90;;;;;;5106712;27;21755;-79
2022/04/10 06:41:24;;;;;;;4.50;2.33;;;2.90;99.90;;;;;;5087609;28;20039;-79
2022/04/10 06:43:50;;;;;;;1.88;1.67;;;2.90;99.90;;;;;;5102635;27;20456;-79
2022/04/10 06:46:16;;;;;;;1.23;1.13;;;3.00;99.90;;;;;;5087067;28;20032;-80
2022/04/10 06:48:42;;;;;;;;;;;3.10;99.90;;;;;;5100645;27;20499;-80
2022/04/10 06:51:07;;;;;;;3.58;1.67;;;3.20;99.90;;;;;;5119378;27;19920;-82
2022/04/10 06:53:33;;;;;;;1.25;1.15;;;3.40;99.90;;;;;;5067780;28;20914;-80
2022/04/10 06:55:59;;;;;;;3.95;1.80;;;3.40;99.90;;;;;;5104908;27;20174;-80
2022/04/10 06:58:25;;;;;;;1.17;1.08;;;3.50;99.90;;;;;;5084130;28;20092;-81
2022/04/10 07:00:50;;;;;;;0.80;0.80;;;3.60;99.90;;;;;;5084779;28;20035;-79
2022/04/10 07:03:17;;;;;;;1.38;1.27;;;3.70;99.90;;;;;;5080838;28;20044;-80
2022/04/10 07:05:42;;;;;;;;;;;3.80;99.90;;;;;;5100801;28;20043;-79
2022/04/10 07:08:09;;;;;;;2.33;1.52;;;4.00;99.90;;;;;;5084236;28;20265;-80
2022/04/10 07:10:36;;;;;;;;;;;4.10;99.90;;;;;;5099011;27;20506;-79
2022/04/10 07:13:02;;;;;;;1.35;1.25;;;4.20;99.90;;;;;;5100581;28;19927;-81
2022/04/10 07:15:28;;;;;;;2.05;1.40;;;4.10;99.90;;;;;;5103893;27;20477;-78
2022/04/10 07:17:56;;;;;;;1.33;1.23;;;4.10;99.90;;;;;;5114638;27;20146;-81
2022/04/10 07:20:22;;;;;;;3.15;1.77;;;4.10;99.90;;;;;;5083370;28;20048;-79
2022/04/10 07:25:32;;;;;;;1.48;1.13;;;4.20;99.90;;;;;;5107502;27;20111;-79
2022/04/10 07:27:57;;;;;;;1.40;1.30;;;4.10;99.90;;;;;;5115342;27;20039;-80
2022/04/10 07:30:23;;;;;;;3.17;1.65;;;4.10;99.90;;;;;;5126794;27;20035;-80
2022/04/10 07:32:53;;;;;;;1.67;1.58;;;4.10;99.90;;;;;;5101767;27;20035;-80
2022/04/10 07:35:21;;;;;;;3.95;1.40;;;4.30;99.90;;;;;;5115805;27;20338;-79
2022/04/10 07:37:47;;;;;;;0.65;0.65;;;4.40;99.90;;;;;;5139012;27;20071;-79
2022/04/10 07:40:13;;;;;;;;;;;4.60;99.90;;;;;;5096103;28;20133;-78
2022/04/10 07:42:44;;;;;;;0.88;0.80;;;4.90;99.90;;;;;;5104312;28;20001;-79
2022/04/10 07:48:00;;;;;;;0.85;0.82;;;5.30;99.90;;;;;;5129782;27;20039;-79
2022/04/10 07:50:27;;;;;;;1.67;1.30;;;5.40;99.90;;;;;;5116190;27;20063;-79
2022/04/10 07:52:53;;;;;;;1.00;0.90;;;5.50;99.90;;;;;;5118412;27;20038;-78
2022/04/10 07:55:19;;;;;;;1.15;1.10;;;5.60;99.90;;;;;;5098290;28;20039;-81
2022/04/10 07:57:44;;;;;;;2.08;1.27;;;5.60;99.90;;;;;;5093092;28;20039;-81
2022/04/10 08:00:11;;;;;;;1.85;1.10;;;5.70;99.90;;;;;;5108449;28;20047;-79
2022/04/10 08:02:42;;;;;;;2.03;1.23;;;5.60;99.90;;;;;;5109250;28;20086;-82
2022/04/10 08:05:08;;;;;;;2.22;0.95;;;5.70;99.90;;;;;;5091094;28;20092;-80
2022/04/10 08:07:34;;;;;;;4.68;1.00;;;5.80;99.90;;;;;;5109694;28;20370;-80
2022/04/10 08:09:59;;;;;;;3.38;1.58;;;5.80;99.90;;;;;;5096552;28;20047;-79
2022/04/10 08:12:25;;;;;;;1.25;1.15;;;5.90;99.90;;;;;;5089960;28;20097;-80
2022/04/10 08:14:51;;;;;;;4.63;1.33;;;6.10;99.90;;;;;;5113742;28;20047;-82
2022/04/10 08:17:17;;;;;;;3.25;1.45;;;6.30;99.90;;;;;;5112305;28;20100;-83
2022/04/10 08:19:42;;;;;;;1.80;1.10;;;6.50;99.90;;;;;;5089649;28;20039;-82
2022/04/10 08:22:08;;;;;;;1.30;0.80;;;6.80;99.90;;;;;;5089078;28;20118;-83
2022/04/10 08:24:35;;;;;;;2.53;0.95;;;6.90;99.90;;;;;;5113922;28;20067;-82
2022/04/10 08:27:08;;;;;;;4.40;0.80;;;6.90;99.90;;;;;;5095978;28;20053;-82
2022/04/10 08:29:35;;;;;;;0.80;0.80;;;6.80;99.90;;;;;;5113130;28;20066;-82
2022/04/10 08:32:00;;;;;;;0.98;0.88;;;6.80;99.90;;;;;;5057748;28;20091;-86
2022/04/10 08:34:27;;;;;;;1.58;1.05;;;6.80;99.90;;;;;;5093254;28;20039;-85
2022/04/10 08:36:53;;;;;;;0.90;0.73;;;7.00;99.90;;;;;;5106632;28;20086;-81
2022/04/10 08:39:19;;;;;;;4.15;1.25;;;7.10;99.90;;;;;;5097375;28;20063;-81
2022/04/10 08:41:46;;;;;;;1.65;0.80;;;7.10;99.90;;;;;;5094869;28;20403;-82
2022/04/10 08:44:14;;;;;;;12.80;1.10;;;7.20;99.90;;;;;;5091904;28;20031;-84
2022/04/10 08:46:40;;;;;;;1.42;1.00;;;7.30;99.90;;;;;;5115574;28;20058;-83
2022/04/10 08:49:08;;;;;;;1.27;1.02;;;7.30;99.90;;;;;;5094111;28;20333;-87
2022/04/10 08:51:33;;;;;;;1.17;0.70;;;7.10;99.90;;;;;;5072571;28;20044;-84
2022/04/10 08:54:01;;;;;;;0.93;0.88;;;7.00;99.90;;;;;;5102622;28;20035;-83
2022/04/10 08:56:27;;;;;;;2.53;1.48;;;7.00;99.90;;;;;;5098715;28;20051;-83
2022/04/10 09:02:52;;;;;;;2.28;1.08;;;8.00;99.90;;;;;;5056095;28;20048;-80
2022/04/10 09:05:23;;;;;;;0.90;0.55;;;7.30;99.90;;;;;;5051474;28;20083;-80
2022/04/10 09:08:06;;;;;;;3.40;0.75;;;7.10;99.90;;;;;;5029946;28;20057;-85
2022/04/10 09:10:55;;;;;;;5.72;1.38;;;7.50;99.90;;;;;;5022101;28;20513;-85
2022/04/10 09:13:26;;;;;;;1.73;1.10;;;7.10;99.90;;;;;;5063081;28;20260;-83
2022/04/10 09:16:00;;;;;;;0.80;0.80;;;7.20;99.90;;;;;;5060760;28;20060;-84
2022/04/10 09:18:27;;;;;;;1.00;0.85;;;7.40;99.90;;;;;;5053085;28;20490;-83
2022/04/10 09:21:07;;;;;;;5.40;1.08;;;7.50;99.90;;;;;;5042335;28;20032;-83
2022/04/10 09:23:33;;;;;;;1.60;1.23;;;7.50;99.90;;;;;;5030994;28;20049;-81
2022/04/10 09:25:59;;;;;;;0.88;0.88;;;7.60;99.90;;;;;;5011299;28;20102;-83
2022/04/10 09:29:03;;;;;;;0.75;0.73;;;7.10;99.90;;;;;;5040007;28;20614;-81
2022/04/10 09:31:35;;;;;;;0.40;0.40;;;8.10;99.90;;;;;;4960732;28;20054;-83
2022/04/10 09:34:07;;;;;;;1.00;0.95;;;7.70;99.90;;;;;;5018851;28;20118;-81
2022/04/10 09:36:48;;;;;;;4.95;1.35;;;7.90;99.90;;;;;;5052752;28;20038;-82
2022/04/10 09:39:16;;;;;;;1.10;1.02;;;8.10;99.90;;;;;;5054774;28;20036;-85
2022/04/10 09:41:43;;;;;;;2.67;1.13;;;8.00;99.90;;;;;;5067126;28;20044;-81
2022/04/10 09:44:19;;;;;;;1.55;0.95;;;8.30;99.90;;;;;;5047617;28;20131;-81
2022/04/10 09:46:59;;;;;;;7.87;1.40;;;8.40;99.90;;;;;;5031928;28;20048;-83
2022/04/10 09:49:33;;;;;;;1.58;1.33;;;8.30;99.90;;;;;;5042707;28;20044;-80
2022/04/10 09:52:24;;;;;;;2.90;0.75;;;7.90;99.90;;;;;;5039366;28;20041;-84
2022/04/10 09:54:54;;;;;;;1.05;0.80;;;7.60;99.90;;;;;;5065566;28;20413;-85
2022/04/10 09:57:20;;;;;;;0.52;0.52;;;7.40;99.90;;;;;;5016154;28;20033;-87
2022/04/10 09:59:57;;;;;;;0.80;0.80;;;7.30;99.90;;;;;;5046743;28;20044;-86
2022/04/10 10:02:29;;;;;;;0.77;0.77;;;7.10;99.90;;;;;;5048711;28;20677;-84
2022/04/10 10:04:56;;;;;;;0.90;0.85;;;7.40;99.90;;;;;;5041951;28;20094;-83
2022/04/10 10:07:23;;;;;;;0.63;0.63;;;7.50;99.90;;;;;;5105126;27;20051;-87
2022/04/10 10:09:50;;;;;;;3.90;1.15;;;7.60;99.90;;;;;;5076075;28;20043;-84
2022/04/10 10:12:17;;;;;;;0.50;0.50;;;7.90;99.90;;;;;;5079621;28;20043;-84
2022/04/10 10:14:44;;;;;;;2.28;2.08;;;8.10;99.90;;;;;;5095536;28;20073;-85
2022/04/10 10:17:10;;;;;;;1.13;1.02;;;8.30;99.90;;;;;;5098485;28;20617;-82
2022/04/10 10:19:43;;;;;;;0.77;0.77;;;8.60;99.90;;;;;;5095831;27;20043;-84
2022/04/10 10:22:13;;;;;;;2.20;1.15;;;8.50;99.90;;;;;;5112810;27;20043;-81
2022/04/10 10:25:07;;;;;;;1.40;1.25;;;8.60;99.90;;;;;;5141992;27;20032;-79
2022/04/10 10:28:19;;;;;;;0.63;0.63;;;8.60;99.90;;;;;;5111958;28;20134;-80
2022/04/10 10:31:11;;;;;;;0.80;0.80;;;8.30;99.90;;;;;;5104665;28;20047;-81
2022/04/10 10:33:40;;;;;;;2.03;1.13;;;8.20;99.90;;;;;;5110888;28;20043;-81
2022/04/10 10:36:12;;;;;;;0.68;0.68;;;8.20;99.90;;;;;;5111290;27;20052;-83
2022/04/10 10:38:51;;;;;;;1.42;0.95;;;8.10;99.90;;;;;;5093662;27;20415;-81
2022/04/10 10:41:20;;;;;;;2.50;1.17;;;8.00;99.90;;;;;;5092416;28;20523;-81
2022/04/10 10:43:47;;;;;;;1.95;1.13;;;8.20;99.90;;;;;;5086727;28;20039;-83
2022/04/10 10:46:38;;;;;;;1.85;1.15;;;8.20;99.90;;;;;;5094647;28;20043;-82
2022/04/10 10:49:14;;;;;;;1.08;0.60;;;8.40;99.90;;;;;;5105366;28;20055;-80
2022/04/10 10:51:46;;;;;;;1.02;0.93;;;8.40;99.90;;;;;;5123871;27;20052;-84
2022/04/10 10:54:14;;;;;;;0.65;0.65;;;8.50;99.90;;;;;;5128956;27;20127;-81
2022/04/10 10:56:42;;;;;;;0.60;0.60;;;8.40;99.90;;;;;;5106392;27;20040;-82
2022/04/10 10:59:25;;;;;;;0.98;0.88;;;8.50;99.90;;;;;;5112055;28;20042;-83
2022/04/10 11:01:52;;;;;;;2.30;1.13;;;8.70;99.90;;;;;;5109128;28;20092;-82
2022/04/10 11:04:22;;;;;;;1.50;1.15;;;8.90;99.90;;;;;;5073157;28;20044;-84
2022/04/10 11:06:48;;;;;;;3.25;0.77;;;8.90;99.90;;;;;;5094770;28;20042;-84
2022/04/10 11:09:30;;;;;;;3.00;1.30;;;8.60;99.90;;;;;;5089375;28;20043;-81
2022/04/10 11:11:59;;;;;;;6.90;1.13;;;8.50;99.90;;;;;;5088708;28;20072;-81
2022/04/10 11:14:38;;;;;;;0.70;0.70;;;8.60;99.90;;;;;;5101965;28;20051;-83
2022/04/10 11:17:26;;;;;;;0.40;0.40;;;8.80;99.90;;;;;;5101247;28;20043;-84
2022/04/10 11:19:56;;;;;;;0.85;0.85;;;9.10;99.90;;;;;;5122774;27;20397;-80
2022/04/10 11:22:33;;;;;;;0.50;0.50;;;9.20;99.90;;;;;;5096061;28;20043;-82
2022/04/10 11:25:00;;;;;;;;;;;9.20;99.90;;;;;;5106737;28;20211;-81
2022/04/10 11:27:47;;;;;;;0.65;0.65;;;9.10;99.90;;;;;;5095046;28;20288;-82
2022/04/10 11:30:15;;;;;;;4.80;1.40;;;9.20;99.90;;;;;;5093789;28;20481;-83
2022/04/10 11:32:47;;;;;;;0.73;0.73;;;9.50;99.90;;;;;;5078208;28;20545;-84
2022/04/10 11:35:18;;;;;;;5.97;0.95;;;9.70;99.90;;;;;;5095523;28;20112;-83
2022/04/10 11:37:47;;;;;;;1.85;1.05;;;9.80;99.90;;;;;;5109150;27;20495;-81
2022/04/10 11:40:17;;;;;;;2.28;0.88;;;9.90;99.90;;;;;;5095687;28;20039;-83
2022/04/10 11:42:43;;;;;;;1.58;0.90;;;10.00;99.90;;;;;;5073990;28;20139;-82
2022/04/10 11:45:09;;;;;;;;;;;10.10;99.90;;;;;;5103193;27;20095;-83
2022/04/10 11:47:42;;;;;;;3.28;1.15;;;10.00;99.90;;;;;;5120186;27;19973;-83
2022/04/10 11:50:11;;;;;;;0.65;0.65;;;10.00;99.90;;;;;;5116355;27;20050;-83
2022/04/10 11:52:37;;;;;;;0.60;0.60;;;10.00;99.90;;;;;;5094401;28;20043;-79
2022/04/10 11:55:08;;;;;;;4.03;1.13;;;9.90;99.90;;;;;;5107740;28;20043;-79
2022/04/10 11:57:38;;;;;;;1.20;1.10;;;9.80;99.90;;;;;;5097175;28;20049;-82
2022/04/10 12:00:09;;;;;;;1.90;0.98;;;9.80;99.90;;;;;;5093099;28;20585;-81
2022/04/10 12:02:42;;;;;;;1.05;0.90;;;9.80;99.90;;;;;;5092460;27;20069;-84
2022/04/10 12:05:08;;;;;;;1.45;1.00;;;9.80;99.90;;;;;;5095059;28;20035;-82
2022/04/10 12:07:39;;;;;;;5.72;2.22;;;10.00;99.90;;;;;;5090364;28;20122;-84
2022/04/10 12:10:06;;;;;;;4.45;1.63;;;9.90;99.90;;;;;;5075549;28;20075;-84
2022/04/10 12:12:36;;;;;;;3.03;1.27;;;10.00;99.90;;;;;;5093268;28;20051;-80
2022/04/10 12:15:14;;;;;;;4.18;1.55;;;10.10;99.90;;;;;;5106771;28;20047;-85
2022/04/10 12:17:39;;;;;;;5.32;1.45;;;10.10;99.90;;;;;;5081992;28;20047;-85
2022/04/10 12:20:06;;;;;;;5.10;1.70;;;10.20;99.90;;;;;;5100863;28;20072;-83
2022/04/10 12:22:31;;;;;;;;;;;10.10;99.90;;;;;;5078373;28;20119;-82
2022/04/10 12:24:58;;;;;;;3.10;1.30;;;9.90;99.90;;;;;;5128641;28;19981;-83
2022/04/10 12:27:24;;;;;;;4.75;1.40;;;9.80;99.90;;;;;;5094269;28;20169;-85
2022/04/10 12:29:51;;;;;;;4.82;1.40;;;9.90;99.90;;;;;;5123267;27;20039;-81
2022/04/10 12:32:17;;;;;;;4.55;1.40;;;9.90;99.90;;;;;;5094393;28;20043;-85
2022/04/10 12:34:44;;;;;;;2.53;1.60;;;10.00;99.90;;;;;;5090115;28;20446;-83
2022/04/10 12:37:14;;;;;;;7.78;1.80;;;9.80;99.90;;;;;;5110436;28;20161;-84
2022/04/10 12:39:41;;;;;;;2.97;1.48;;;9.70;99.90;;;;;;5103680;28;20465;-84
2022/04/10 12:42:09;;;;;;;3.67;1.60;;;9.90;99.90;;;;;;5076447;28;20059;-81
2022/04/10 12:44:37;;;;;;;4.35;2.00;;;10.00;99.90;;;;;;5119326;27;20176;-86
2022/04/10 12:47:06;;;;;;;3.85;1.33;;;10.20;99.90;;;;;;5099308;27;20054;-80
2022/04/10 12:49:32;;;;;;;2.60;1.20;;;10.30;99.90;;;;;;5095096;28;20065;-85
2022/04/10 12:52:00;;;;;;;4.25;1.60;;;10.30;99.90;;;;;;5090480;28;20050;-82
2022/04/10 12:54:33;;;;;;;8.43;1.70;;;10.30;99.90;;;;;;5090937;27;20035;-82
2022/04/10 12:56:59;;;;;;;4.03;1.30;;;10.20;99.90;;;;;;5116864;27;20039;-80
2022/04/10 12:59:40;;;;;;;4.82;1.40;;;10.20;99.90;;;;;;5096650;28;20039;-84
2022/04/10 13:02:19;;;;;;;4.03;1.70;;;10.30;99.90;;;;;;5095960;28;20044;-85
2022/04/10 13:04:55;;;;;;;4.05;1.42;;;10.50;99.90;;;;;;5123799;27;20079;-83
2022/04/10 13:07:29;;;;;;;4.68;1.08;;;10.50;99.90;;;;;;5099182;28;20057;-82
2022/04/10 13:10:01;;;;;;;5.03;1.70;;;10.50;99.90;;;;;;5111790;27;20071;-82
2022/04/10 13:12:29;;;;;;;2.95;1.45;;;10.40;99.90;;;;;;5092798;27;20050;-85
2022/04/10 13:14:55;;;;;;;6.07;1.73;;;10.50;99.90;;;;;;5104691;28;20483;-82
2022/04/10 13:17:21;;;;;;;4.28;1.98;;;10.60;99.90;;;;;;5129003;27;20043;-84